Time;durP1;ratioP1;P1;durP2;ratioP2;P2;SDS_P1;SDS_P2;PMS_P1;PMS_P2;Temp;Humidity;BMP_temperature;BMP_pressure;BME280_temperature;BME280_humidity;BME280_pressure;Samples;Min_cycle;Max_cycle;Signal;HPM_P1;HPM_P2
2024/03/19 00:36:53;;;;;;;15.10;5.95;;;10.10;45.90;;;;;;21014949;22;20053;-48
2024/03/19 00:46:57;;;;;;;16.73;6.00;;;10.20;38.50;;;;;;21376917;23;20048;-49
2024/03/19 00:56:58;;;;;;;13.77;5.97;;;10.20;35.30;;;;;;21180182;23;20475;-49
2024/03/19 01:07:00;;;;;;;13.35;6.07;;;10.20;31.40;;;;;;21314236;22;20050;-48
2024/03/19 01:17:00;;;;;;;12.55;5.53;;;10.40;23.70;;;;;;21317820;22;20041;-49
2024/03/19 01:27:28;;;;;;;14.00;6.33;;;10.40;18.80;;;;;;21290474;22;20050;-86
2024/03/19 01:38:01;;;;;;;13.13;6.33;;;10.50;14.50;;;;;;20807731;28;20053;-86
2024/03/19 01:59:28;;;;;;;10.80;6.50;;;10.50;10.80;;;;;;20722993;28;20046;-86
2024/03/19 02:09:50;;;;;;;20.00;7.63;;;10.50;10.20;;;;;;20793063;28;20950;-86
2024/03/19 02:20:16;;;;;;;9.55;6.38;;;10.50;13.20;;;;;;20738947;28;20046;-86
2024/03/19 02:30:39;;;;;;;13.00;6.95;;;10.50;14.30;;;;;;20732439;28;20444;-86
2024/03/19 02:41:04;;;;;;;14.77;8.10;;;10.60;14.60;;;;;;20803782;28;20097;-86
2024/03/19 02:51:15;;;;;;;16.00;7.80;;;10.50;20.60;;;;;;20719863;28;20030;-86
2024/03/19 03:01:18;;;;;;;14.25;8.30;;;10.50;24.70;;;;;;20785965;28;20076;-86
2024/03/19 03:11:46;;;;;;;13.45;7.75;;;10.50;31.00;;;;;;20824510;28;20085;-85
2024/03/19 03:22:07;;;;;;;14.02;6.93;;;10.40;38.60;;;;;;20797432;28;20034;-85
2024/03/19 03:32:14;;;;;;;13.65;6.93;;;10.50;44.80;;;;;;20889087;28;20054;-86
2024/03/19 03:52:34;;;;;;;12.85;6.75;;;10.70;47.10;;;;;;20779661;28;20597;-86
2024/03/19 04:02:47;;;;;;;11.45;6.35;;;10.70;50.80;;;;;;20762825;28;20069;-86
2024/03/19 04:13:20;;;;;;;15.93;6.55;;;10.70;56.30;;;;;;20758401;28;20105;-86
2024/03/19 04:23:25;;;;;;;13.82;7.65;;;10.70;60.00;;;;;;20703793;28;20171;-86
2024/03/19 04:33:29;;;;;;;14.60;7.60;;;10.60;63.10;;;;;;20721277;28;20037;-87
2024/03/19 04:43:41;;;;;;;12.50;7.25;;;10.70;62.80;;;;;;20638605;28;20057;-87
2024/03/19 04:53:45;;;;;;;14.60;7.78;;;10.70;60.80;;;;;;20579517;28;20138;-87
2024/03/19 05:13:56;;;;;;;15.93;8.30;;;10.60;68.70;;;;;;21322779;23;20198;-49
2024/03/19 05:23:57;;;;;;;16.08;8.77;;;10.60;70.50;;;;;;21251950;22;20049;-48
2024/03/19 05:33:57;;;;;;;17.13;8.40;;;10.60;67.60;;;;;;21291757;23;20042;-49
2024/03/19 05:43:58;;;;;;;17.88;8.32;;;10.60;72.10;;;;;;21237771;23;20501;-48
2024/03/19 05:54:01;;;;;;;13.20;8.02;;;10.60;67.30;;;;;;21057387;22;20046;-85
2024/03/19 06:04:03;;;;;;;14.15;7.57;;;10.70;64.20;;;;;;20942114;28;20040;-85
2024/03/19 06:25:09;;;;;;;15.98;8.82;;;10.60;59.60;;;;;;20782349;28;20041;-84
2024/03/19 06:46:14;;;;;;;14.18;8.05;;;10.70;47.40;;;;;;20769891;28;20110;-86
2024/03/19 06:56:29;;;;;;;15.07;7.28;;;10.80;40.00;;;;;;20938364;28;20111;-84
2024/03/19 07:06:36;;;;;;;14.38;7.85;;;10.90;33.60;;;;;;20889905;28;20046;-86
2024/03/19 07:16:40;;;;;;;11.87;7.10;;;11.00;27.00;;;;;;20898409;28;20409;-86
2024/03/19 07:26:46;;;;;;;13.20;6.40;;;11.10;22.50;;;;;;20935507;28;20096;-86
2024/03/19 07:36:53;;;;;;;10.37;5.77;;;11.20;18.40;;;;;;21015915;28;20047;-86
2024/03/19 07:48:04;;;;;;;9.03;5.40;;;11.40;17.60;;;;;;20942776;28;20061;-86
2024/03/19 07:58:05;;;;;;;10.02;5.43;;;11.50;15.20;;;;;;21103466;22;20033;-49
2024/03/19 08:08:06;;;;;;;8.80;5.22;;;11.60;13.30;;;;;;21369554;22;20045;-48
2024/03/19 08:18:08;;;;;;;10.02;5.03;;;11.60;13.40;;;;;;21247579;23;20419;-48
2024/03/19 08:28:09;;;;;;;8.45;4.07;;;11.70;11.70;;;;;;21216726;23;20386;-49
2024/03/19 08:38:12;;;;;;;7.17;3.60;;;11.70;10.20;;;;;;20989912;23;20042;-82
2024/03/19 08:48:17;;;;;;;5.18;2.72;;;11.80;7.80;;;;;;20759284;28;20426;-85
2024/03/19 08:58:31;;;;;;;10.20;3.40;;;12.20;1.00;;;;;;20764713;28;20065;-83
2024/03/19 09:08:36;;;;;;;7.65;2.85;;;12.30;1.00;;;;;;20753573;28;20099;-85
2024/03/19 09:18:44;;;;;;;6.15;2.90;;;12.30;1.00;;;;;;20728049;28;20067;-83
2024/03/19 09:29:19;;;;;;;6.78;3.28;;;12.30;1.00;;;;;;20796565;23;20050;-85
2024/03/19 09:39:35;;;;;;;8.73;4.43;;;12.40;1.00;;;;;;20771798;28;20045;-85
2024/03/19 09:50:15;;;;;;;11.20;4.28;;;12.70;1.00;;;;;;20807214;28;20038;-84
2024/03/19 10:00:37;;;;;;;9.73;4.22;;;13.00;1.00;;;;;;20843266;28;20047;-84
2024/03/19 10:11:02;;;;;;;8.73;4.70;;;13.10;1.00;;;;;;20761108;28;20069;-84
2024/03/19 10:21:29;;;;;;;10.60;4.47;;;13.50;1.00;;;;;;20742188;28;20030;-85
2024/03/19 10:42:18;;;;;;;12.00;4.60;;;14.30;1.00;;;;;;20734310;23;20041;-85
2024/03/19 10:52:34;;;;;;;15.53;3.97;;;14.70;1.00;;;;;;20708792;28;20050;-84
2024/03/19 11:02:56;;;;;;;10.68;3.08;;;14.90;1.00;;;;;;20817852;28;20038;-85
2024/03/19 11:13:21;;;;;;;9.32;3.60;;;15.30;1.00;;;;;;20795965;28;20061;-83
2024/03/19 11:23:25;;;;;;;8.50;4.20;;;15.80;1.00;;;;;;20757618;28;20039;-84
2024/03/19 11:33:36;;;;;;;7.05;2.50;;;16.10;1.00;;;;;;20733033;28;20031;-84
2024/03/19 11:43:37;;;;;;;7.82;2.75;;;16.30;1.00;;;;;;20633326;28;20049;-82
2024/03/19 11:53:39;;;;;;;8.45;2.58;;;17.50;1.00;;;;;;20710718;28;20045;-84
2024/03/19 12:03:41;;;;;;;7.40;2.42;;;18.80;1.00;;;;;;20685625;28;20099;-84
2024/03/19 12:13:41;;;;;;;9.25;2.92;;;17.60;1.00;;;;;;20677311;28;20030;-83
2024/03/19 12:23:42;;;;;;;9.50;2.47;;;17.30;1.00;;;;;;20639295;28;20038;-83
2024/03/19 12:33:50;;;;;;;7.63;2.58;;;18.00;1.00;;;;;;20663060;28;20039;-84
2024/03/19 12:43:58;;;;;;;6.57;2.90;;;19.20;1.00;;;;;;20609911;28;20058;-85
2024/03/19 12:54:00;;;;;;;10.20;2.65;;;19.60;1.00;;;;;;20564447;28;20057;-87
2024/03/19 13:04:03;;;;;;;7.20;3.00;;;19.20;1.00;;;;;;20609051;23;20048;-48
2024/03/19 13:14:04;;;;;;;6.07;2.10;;;18.30;1.00;;;;;;20954079;22;20049;-86
2024/03/19 13:34:07;;;;;;;7.13;2.08;;;18.40;1.00;;;;;;21345099;22;20410;-50
2024/03/19 13:44:08;;;;;;;7.60;2.30;;;19.10;1.00;;;;;;21269388;23;20306;-48
2024/03/19 13:54:14;;;;;;;5.00;1.80;;;19.40;1.00;;;;;;21262024;22;20108;-86
2024/03/19 14:04:34;;;;;;;5.47;2.20;;;18.70;1.00;;;;;;20999462;28;20067;-85
2024/03/19 14:14:36;;;;;;;6.38;2.08;;;17.70;1.00;;;;;;21005447;28;20033;-83
2024/03/19 14:24:44;;;;;;;5.20;3.03;;;18.20;1.00;;;;;;21005799;28;20035;-82
2024/03/19 14:34:45;;;;;;;6.53;3.33;;;17.30;1.00;;;;;;21007944;28;20039;-82
2024/03/19 14:44:46;;;;;;;6.35;3.13;;;16.80;1.00;;;;;;21039404;28;20037;-83
2024/03/19 14:54:55;;;;;;;4.85;1.90;;;16.80;1.00;;;;;;20988240;28;1752155;-83
2024/03/19 15:04:58;;;;;;;5.63;1.63;;;16.80;1.00;;;;;;21041059;28;20543;-85
2024/03/19 15:15:21;;;;;;;3.63;1.48;;;16.60;1.00;;;;;;21035177;28;20087;-86
2024/03/19 15:25:30;;;;;;;8.00;1.40;;;16.60;1.00;;;;;;20987543;28;20037;-83
2024/03/19 15:35:31;;;;;;;4.70;1.33;;;16.50;1.00;;;;;;21042054;23;20050;-48
2024/03/19 15:55:42;;;;;;;4.88;1.42;;;16.30;1.00;;;;;;21140236;22;20034;-50
2024/03/19 16:05:43;;;;;;;4.77;1.60;;;16.00;1.00;;;;;;21346674;23;20041;-48
2024/03/19 16:15:43;;;;;;;5.90;1.30;;;15.70;1.00;;;;;;21335605;22;20038;-49
2024/03/19 16:25:44;;;;;;;4.68;1.13;;;15.50;1.00;;;;;;21321124;23;20487;-48
2024/03/19 16:35:45;;;;;;;3.00;0.98;;;15.00;1.00;;;;;;21295718;23;20044;-48
2024/03/19 16:46:15;;;;;;;4.00;1.27;;;14.80;1.00;;;;;;21341459;22;20057;-86
2024/03/19 17:06:41;;;;;;;8.95;1.75;;;14.30;1.00;;;;;;20949930;22;20084;-50
2024/03/19 17:16:44;;;;;;;7.35;2.10;;;14.10;1.00;;;;;;20967658;23;20101;-85
2024/03/19 17:26:44;;;;;;;6.18;1.60;;;13.90;1.00;;;;;;20940364;28;20033;-83
2024/03/19 17:36:55;;;;;;;6.35;1.98;;;13.60;1.00;;;;;;20879826;28;20045;-85
2024/03/19 17:46:57;;;;;;;6.50;2.00;;;13.40;1.00;;;;;;20851586;28;20057;-84
2024/03/19 17:57:01;;;;;;;7.47;2.00;;;13.20;1.00;;;;;;20956068;22;20057;-84
2024/03/19 18:07:18;;;;;;;9.02;2.72;;;13.10;1.00;;;;;;20820866;28;20076;-85
2024/03/19 18:17:30;;;;;;;8.50;3.42;;;12.80;1.00;;;;;;20678344;28;20471;-85
2024/03/19 18:27:31;;;;;;;7.20;3.65;;;12.70;1.00;;;;;;20762968;23;20505;-49
2024/03/19 18:37:32;;;;;;;7.68;3.42;;;12.50;1.00;;;;;;21018199;23;20053;-81
2024/03/19 18:47:36;;;;;;;8.80;3.50;;;12.40;1.00;;;;;;21137345;23;20045;-49
2024/03/19 18:57:37;;;;;;;15.02;5.65;;;12.30;1.00;;;;;;21369054;23;20048;-49
2024/03/19 19:07:38;;;;;;;12.55;4.57;;;12.10;1.00;;;;;;21244736;23;20075;-49
2024/03/19 19:17:38;;;;;;;12.17;6.77;;;12.00;1.00;;;;;;21184713;23;20037;-49
2024/03/19 19:27:39;;;;;;;9.83;4.10;;;11.90;1.00;;;;;;21080051;23;20687;-49
2024/03/19 19:37:40;;;;;;;12.30;4.23;;;11.80;1.00;;;;;;21190219;23;21010;-50
2024/03/19 19:47:41;;;;;;;12.23;7.57;;;11.70;1.00;;;;;;21203273;23;20467;-49
2024/03/19 19:57:42;;;;;;;12.50;7.07;;;11.60;1.00;;;;;;21087969;23;20437;-83
2024/03/19 20:07:46;;;;;;;8.50;5.65;;;11.40;1.00;;;;;;20745385;28;20038;-83
2024/03/19 20:17:47;;;;;;;12.55;5.28;;;11.40;1.00;;;;;;20790264;28;20040;-84
2024/03/19 20:27:49;;;;;;;8.20;4.13;;;11.30;5.00;;;;;;20814766;28;20038;-84
2024/03/19 20:37:50;;;;;;;12.88;6.57;;;11.30;9.10;;;;;;20791506;28;20041;-84
2024/03/19 20:47:51;;;;;;;13.15;7.10;;;11.10;10.10;;;;;;20704462;28;20048;-84
2024/03/19 20:57:55;;;;;;;13.20;7.93;;;11.20;13.80;;;;;;20689952;28;20062;-83
2024/03/19 21:08:00;;;;;;;10.48;5.60;;;11.20;20.80;;;;;;20656029;28;20058;-86
2024/03/19 21:18:05;;;;;;;11.60;5.70;;;11.20;21.30;;;;;;20637433;28;20061;-87
2024/03/19 21:28:15;;;;;;;9.23;4.82;;;11.30;20.60;;;;;;20685950;28;20039;-87
2024/03/19 21:38:47;;;;;;;8.90;4.35;;;11.30;22.90;;;;;;20987038;23;20041;-86
2024/03/19 22:00:29;;;;;;;10.07;4.25;;;11.20;20.00;;;;;;20820877;28;20057;-87
2024/03/19 22:11:45;;;;;;;11.48;4.53;;;11.30;24.40;;;;;;20786583;28;20057;-86
2024/03/19 22:22:28;;;;;;;9.60;4.38;;;11.30;22.90;;;;;;20535698;28;20065;-87
2024/03/19 22:32:38;;;;;;;11.15;4.25;;;11.20;22.10;;;;;;20827294;28;20038;-85
2024/03/19 22:42:41;;;;;;;;;;;11.20;25.20;;;;;;20745096;28;20051;-86
2024/03/19 22:52:48;;;;;;;10.45;4.80;;;11.00;22.40;;;;;;20741793;28;19953;-86
2024/03/19 23:02:59;;;;;;;10.47;4.67;;;11.00;20.80;;;;;;20696046;28;20046;-85
2024/03/19 23:13:12;;;;;;;11.35;4.60;;;11.00;23.90;;;;;;20770155;28;20034;-85
2024/03/19 23:23:38;;;;;;;10.68;5.40;;;11.10;22.30;;;;;;20662774;28;20111;-86
2024/03/19 23:33:43;;;;;;;10.55;5.43;;;11.10;19.00;;;;;;20807309;28;20097;-85
2024/03/19 23:43:52;;;;;;;9.48;5.75;;;11.20;16.10;;;;;;20746289;28;20050;-85
2024/03/19 23:53:54;;;;;;;10.80;6.90;;;11.20;13.70;;;;;;20749689;28;20053;-85
